Flight Track Log - Related Links

Times and Time Zones

All times are in EDT time to prevent confusion due to time zone crossing. See the N524NK flight status page for this flight to view local times or setup timezone preferences in your user account.

Time Position Orientation Groundspeed Altitude Reporting Facility
EDT Latitude Longitude Course Direction KTS MPH feet Rate Location/Type
Tue 08:55:37 AM 28.0030 -82.5290 352° North 148 170 1,200  Level FlightAware ADS-B
Tue 08:55:52 AM 28.0140 -82.5310 351° North 166 191 1,600 1,600 Climbing FlightAware ADS-B
Tue 08:56:22 AM 28.0400 -82.5350 352° North 207 238 2,400 1,964 Climbing FlightAware ADS-B
Tue 08:56:47 AM 28.0660 -82.5360 358° North 238 274 3,400 3,150 Climbing FlightAware ADS-B
Tue 08:57:02 AM 28.0830 -82.5370 357° North 239 275 4,500 3,733 Climbing FlightAware ADS-B
Tue 08:57:32 AM 28.1150 -82.5450 348° North 258 297 6,200 3,000 Climbing FlightAware ADS-B
Tue 08:57:42 AM 28.1230 -82.5560 310° West 273 314 6,500 2,700 Climbing FlightAware ADS-B
Tue 08:57:52 AM 28.1270 -82.5700 288° West 280 322 7,100 3,733 Climbing FlightAware ADS-B
Tue 08:58:27 AM 28.1030 -82.6100 236° Southwest 295 339 9,300 3,720 Climbing FlightAware ADS-B
Tue 08:58:42 AM 28.0810 -82.6140 189° South 300 345 10,200 2,291 Climbing FlightAware ADS-B
Tue 08:59:22 AM 28.0210 -82.6050 172° South 353 406 11,400 1,950 Climbing FlightAware ADS-B
Tue 09:00:02 AM 27.9520 -82.5950 173° South 387 445 12,800 2,471 Climbing FlightAware ADS-B
Tue 09:00:47 AM 27.8690 -82.5850 174° South 401 461 14,900 2,824 Climbing FlightAware ADS-B
Tue 09:01:27 AM 27.7960 -82.5780 175° South 406 467 16,800 3,106 Climbing FlightAware ADS-B
Tue 09:02:12 AM 27.7120 -82.5480 162° South 408 470 19,300 2,894 Climbing FlightAware ADS-B
Tue 09:02:52 AM 27.6450 -82.5160 157° South 417 480 20,900 2,250 Climbing FlightAware ADS-B
Tue 09:03:32 AM 27.5720 -82.4810 157° South 428 493 22,300 1,482 Climbing FlightAware ADS-B
Tue 09:04:17 AM 27.4930 -82.4350 153° Southeast 426 490 23,000 494 Climbing FlightAware ADS-B
Tue 09:04:57 AM 27.4220 -82.3920 152° Southeast 421 484 23,000  Level FlightAware ADS-B
Tue 09:05:37 AM 27.3530 -82.3500 152° Southeast 421 484 23,000  Level FlightAware ADS-B
Tue 09:06:22 AM 27.2760 -82.3040 152° Southeast 417 480 23,000  Level FlightAware ADS-B
Tue 09:07:07 AM 27.2060 -82.2620 152° Southeast 418 481 23,000  Level FlightAware ADS-B
Tue 09:07:47 AM 27.1310 -82.2180 152° Southeast 419 482 23,000  Level FlightAware ADS-B
Tue 09:08:27 AM 27.0680 -82.1850 155° Southeast 409 471 23,000  Level FlightAware ADS-B
Tue 09:09:02 AM 27.0050 -82.1620 162° South 407 468 23,000  Level FlightAware ADS-B
Tue 09:09:47 AM 26.9200 -82.1320 163° South 408 470 23,000  Level FlightAware ADS-B
Tue 09:10:37 AM 26.8320 -82.0900 157° South 414 476 23,000  Level FlightAware ADS-B
Tue 09:10:52 AM 26.8120 -82.0670 134° Southeast 420 483 23,000  Level FlightAware ADS-B
Tue 09:11:32 AM 26.7640 -81.9970 128° Southeast 419 482 23,000 -75 Level FlightAware ADS-B
Tue 09:12:12 AM 26.7160 -81.9290 128° Southeast 418 481 22,900 -565 Descending FlightAware ADS-B
Tue 09:12:57 AM 26.6660 -81.8570 128° Southeast 404 465 22,200 -975 Descending FlightAware ADS-B
Tue 09:13:32 AM 26.6270 -81.8030 129° Southeast 399 459 21,600 -1,059 Descending FlightAware ADS-B
Tue 09:14:22 AM 26.5650 -81.7140 128° Southeast 400 460 20,700 -1,200 Descending FlightAware ADS-B
Tue 09:15:02 AM 26.5180 -81.6480 129° Southeast 395 455 19,800 -1,575 Descending FlightAware ADS-B
Tue 09:15:42 AM 26.4740 -81.5850 128° Southeast 393 452 18,600 -1,835 Descending FlightAware ADS-B
Tue 09:16:27 AM 26.4240 -81.5140 128° Southeast 382 440 17,200 -1,835 Descending FlightAware ADS-B
Tue 09:17:07 AM 26.3800 -81.4530 129° Southeast 371 427 16,000 -1,765 Descending FlightAware ADS-B
Tue 09:17:52 AM 26.3320 -81.3840 128° Southeast 365 420 14,700 -1,765 Descending FlightAware ADS-B
Tue 09:18:32 AM 26.2930 -81.3220 125° Southeast 355 409 13,500 -1,725 Descending FlightAware ADS-B
Tue 09:19:12 AM 26.2610 -81.2610 120° Southeast 347 399 12,400 -1,624 Descending FlightAware ADS-B
Tue 09:19:57 AM 26.2260 -81.1930 120° Southeast 333 383 11,200 -1,553 Descending FlightAware ADS-B
Tue 09:20:37 AM 26.1940 -81.1330 121° Southeast 324 373 10,200 -1,114 Descending FlightAware ADS-B
Tue 09:21:07 AM 26.1730 -81.0940 121° Southeast 289 333 9,900 -873 Descending FlightAware ADS-B
Tue 09:21:32 AM 26.1550 -81.0600 121° Southeast 293 337 9,400 -1,200 Descending FlightAware ADS-B
Tue 09:21:47 AM 26.1440 -81.0400 121° Southeast 289 333 9,100 -1,200 Descending FlightAware ADS-B
Tue 09:21:57 AM 26.1390 -81.0270 113° Southeast 290 334 8,900 -1,000 Descending FlightAware ADS-B
Tue 09:22:17 AM 26.1350 -80.9980 99° East 285 328 8,600 -1,200 Descending FlightAware ADS-B
Tue 09:22:37 AM 26.1320 -80.9690 97° East 283 326 8,100 -1,636 Descending FlightAware ADS-B
Tue 09:23:12 AM 26.1260 -80.9180 97° East 286 329 7,100 -1,700 Descending FlightAware ADS-B
Tue 09:23:37 AM 26.1210 -80.8820 99° East 285 328 6,400 -1,309 Descending FlightAware ADS-B
Tue 09:24:07 AM 26.1160 -80.8380 97° East 273 314 5,900 -500 Descending FlightAware ADS-B
Tue 09:24:37 AM 26.1110 -80.7980 98° East 241 277 5,900  Level FlightAware ADS-B
Tue 09:24:52 AM 26.1090 -80.7810 97° East 238 274 5,900  Level FlightAware ADS-B
Tue 09:25:17 AM 26.1050 -80.7500 98° East 236 272 5,900  Level FlightAware ADS-B
Tue 09:25:47 AM 26.1010 -80.7160 97° East 208 239 5,900  Level FlightAware ADS-B
Tue 09:26:12 AM 26.0980 -80.6900 97° East 200 230 5,900  Level FlightAware ADS-B
Tue 09:26:42 AM 26.0950 -80.6590 96° East 200 230 5,900  Level FlightAware ADS-B
Tue 09:27:12 AM 26.0910 -80.6290 98° East 200 230 5,900  Level FlightAware ADS-B
Tue 09:27:37 AM 26.0880 -80.6030 97° East 203 234 5,900  Level FlightAware ADS-B
Tue 09:28:07 AM 26.0800 -80.5730 107° East 202 232 5,900  Level FlightAware ADS-B
Tue 09:28:17 AM 26.0800 -80.5620 90° East 201 231 5,900  Level FlightAware ADS-B
Tue 09:28:47 AM 26.0790 -80.5320 92° East 201 231 5,900 -300 Level FlightAware ADS-B
Tue 09:29:17 AM 26.0790 -80.5000 90° East 198 228 5,600 -764 Descending FlightAware ADS-B
Tue 09:29:42 AM 26.0780 -80.4760 93° East 196 226 5,200 -857 Descending FlightAware ADS-B
Tue 09:29:52 AM 26.0780 -80.4660 90° East 196 226 5,100 -1,067 Descending FlightAware ADS-B
Tue 09:30:27 AM 26.0780 -80.4300 90° East 198 228 4,400 -1,100 Descending FlightAware ADS-B
Tue 09:30:52 AM 26.0780 -80.4050 90° East 197 227 4,000 -1,091 Descending FlightAware ADS-B
Tue 09:31:22 AM 26.0780 -80.3750 90° East 192 221 3,400 -960 Descending FlightAware ADS-B
Tue 09:31:42 AM 26.0780 -80.3550 90° East 177 204 3,200 -800 Descending FlightAware ADS-B
Tue 09:32:07 AM 26.0780 -80.3340 90° East 171 197 2,800 -884 Descending FlightAware ADS-B
Tue 09:33:17 AM 26.0780 -80.2760 90° East 163 188 1,800 -786 Descending FlightAware ADS-B
Tue 09:34:32 AM 26.0770 -80.2240 91° East 121 139 900 -563 Descending FlightAware ADS-B
Tue 09:35:57 AM 26.0770 -80.1710 90° East 126 145 300 -424 Descending FlightAware ADS-B
Tue 09:42:00 AM 26.0667 -80.1500 180° South  Level FlightAware Approximate
Tue 09:43:00 AM 26.0726 -80.1527 180° South  Level Estimated

Login

Don't have an account? Register now (free) for customized features, flight alerts, and more!